Time;durP1;ratioP1;P1;durP2;ratioP2;P2;SDS_P1;SDS_P2;PMS_P1;PMS_P2;Temp;Humidity;BMP_temperature;BMP_pressure;BME280_temperature;BME280_humidity;BME280_pressure;Samples;Min_cycle;Max_cycle;Signal;HPM_P1;HPM_P2
2020/12/24 00:02:08;;;;;;;66.77;42.13;;;10.50;80.20;;;;;;4665200;28;20432;-77
2020/12/24 00:04:25;;;;;;;67.20;42.70;;;;;;;;;;4665900;28;20431;-77
2020/12/24 00:06:40;;;;;;;70.83;42.93;;;11.80;83.40;;;;;;4665220;28;20631;-76
2020/12/24 00:08:56;;;;;;;75.87;46.30;;;10.80;82.90;;;;;;4664693;28;21059;-78
2020/12/24 00:11:15;;;;;;;70.33;44.37;;;10.80;81.40;;;;;;4665179;28;20490;-77
2020/12/24 00:13:31;;;;;;;74.00;42.97;;;10.20;83.00;;;;;;4666667;28;20483;-77
2020/12/24 00:15:47;;;;;;;75.27;45.23;;;9.60;80.60;;;;;;4668583;28;20440;-77
2020/12/24 00:18:09;;;;;;;71.70;44.90;;;11.30;81.60;;;;;;4669003;28;20896;-77
2020/12/24 00:20:25;;;;;;;76.83;47.50;;;10.70;83.40;;;;;;4668766;28;20468;-78
2020/12/24 00:22:41;;;;;;;76.40;46.40;;;9.90;80.60;;;;;;4669034;28;20441;-77
2020/12/24 00:24:58;;;;;;;73.30;44.43;;;;;;;;;;4670059;28;20448;-76
2020/12/24 00:27:15;;;;;;;70.43;43.37;;;10.00;82.70;;;;;;4668709;28;20480;-77
2020/12/24 00:29:31;;;;;;;80.03;45.90;;;11.10;83.50;;;;;;4668588;28;20444;-76
2020/12/24 00:31:47;;;;;;;75.93;45.33;;;11.00;83.30;;;;;;4667155;28;20451;-77
2020/12/24 00:34:06;;;;;;;67.50;43.80;;;10.30;82.90;;;;;;4668768;28;20440;-77
2020/12/24 00:36:22;;;;;;;67.37;41.63;;;11.50;81.30;;;;;;4667393;28;20479;-79
2020/12/24 00:38:38;;;;;;;68.60;44.20;;;;;;;;;;4669084;28;20464;-76
2020/12/24 00:40:55;;;;;;;70.20;44.03;;;10.00;80.50;;;;;;4668369;28;20497;-77
2020/12/24 00:43:11;;;;;;;72.10;44.90;;;11.00;83.40;;;;;;4669231;28;20437;-76
2020/12/24 00:45:28;;;;;;;74.17;44.43;;;9.90;82.80;;;;;;4668201;28;20433;-76
2020/12/24 00:47:44;;;;;;;69.33;44.27;;;10.80;83.30;;;;;;4667393;28;20578;-75
2020/12/24 00:50:00;;;;;;;74.30;47.33;;;10.90;83.40;;;;;;4668031;28;20440;-75
2020/12/24 00:52:18;;;;;;;68.50;45.67;;;;;;;;;;4667158;28;20452;-77
2020/12/24 00:54:34;;;;;;;75.33;47.03;;;;;;;;;;4667988;28;20440;-76
2020/12/24 00:56:53;;;;;;;83.33;48.30;;;10.70;83.70;;;;;;4667191;28;20417;-75
2020/12/24 00:59:13;;;;;;;90.43;51.27;;;10.20;83.80;;;;;;4650078;28;20464;-76
2020/12/24 01:01:29;;;;;;;89.33;49.47;;;10.20;83.90;;;;;;4668365;28;20436;-74
2020/12/24 01:03:45;;;;;;;83.10;48.30;;;;;;;;;;4668188;28;20545;-75
2020/12/24 01:06:02;;;;;;;103.17;50.93;;;11.40;85.00;;;;;;4668005;28;20958;-76
2020/12/24 01:08:17;;;;;;;92.60;51.50;;;10.40;84.80;;;;;;4667853;28;20480;-75
2020/12/24 01:10:34;;;;;;;94.83;50.73;;;;;;;;;;4649789;28;20449;-75
2020/12/24 01:12:51;;;;;;;105.17;55.30;;;9.60;84.70;;;;;;4667894;28;20992;-74
2020/12/24 01:15:09;;;;;;;96.57;54.27;;;10.90;82.90;;;;;;4666872;28;20885;-75
2020/12/24 01:17:26;;;;;;;94.80;52.43;;;10.10;85.40;;;;;;4669015;28;20482;-76
2020/12/24 01:19:42;;;;;;;96.87;53.73;;;11.00;83.20;;;;;;4668084;28;20494;-76
2020/12/24 01:21:58;;;;;;;92.83;51.87;;;9.60;85.30;;;;;;4668782;28;20432;-75
2020/12/24 01:24:14;;;;;;;99.83;53.30;;;;;;;;;;4667200;28;20536;-75
2020/12/24 01:26:30;;;;;;;102.87;53.93;;;9.00;82.20;;;;;;4668400;28;20444;-75
2020/12/24 01:28:46;;;;;;;93.50;53.57;;;9.40;82.30;;;;;;4668901;28;20478;-75
2020/12/24 01:31:05;;;;;;;82.20;49.10;;;10.70;85.50;;;;;;4667027;28;20489;-76
2020/12/24 01:33:21;;;;;;;80.03;49.30;;;11.60;85.70;;;;;;4668652;28;20929;-77
2020/12/24 01:35:37;;;;;;;82.10;49.00;;;10.60;85.30;;;;;;4667972;28;20436;-75
2020/12/24 01:37:53;;;;;;;92.47;51.30;;;;;;;;;;4668476;28;20475;-74
2020/12/24 01:40:25;;;;;;;79.47;48.73;;;11.30;83.20;;;;;;4667944;28;20429;-75
2020/12/24 01:42:40;;;;;;;81.87;50.13;;;11.40;83.00;;;;;;4668975;28;20794;-75
2020/12/24 01:44:56;;;;;;;74.97;46.73;;;9.90;84.80;;;;;;4667499;28;20934;-75
2020/12/24 01:47:14;;;;;;;73.37;46.13;;;9.40;84.40;;;;;;4667161;28;20449;-75
2020/12/24 01:49:30;;;;;;;70.73;45.40;;;10.40;84.90;;;;;;4667774;28;20519;-75
2020/12/24 01:51:51;;;;;;;70.80;44.87;;;9.70;84.40;;;;;;4667731;28;20471;-75
2020/12/24 01:54:08;;;;;;;72.43;45.10;;;;;;;;;;4666051;28;20448;-76
2020/12/24 01:56:25;;;;;;;63.97;42.80;;;10.10;84.80;;;;;;4668337;28;20472;-74
2020/12/24 01:58:49;;;;;;;67.43;42.60;;;10.70;82.60;;;;;;4667735;28;20420;-74
2020/12/24 02:01:06;;;;;;;64.10;44.10;;;10.30;84.80;;;;;;4666217;28;20452;-74
2020/12/24 02:03:23;;;;;;;65.47;44.27;;;;;;;;;;4667770;28;20455;-74
2020/12/24 02:05:39;;;;;;;64.47;44.00;;;10.70;85.00;;;;;;4667500;28;20531;-75
2020/12/24 02:07:56;;;;;;;64.80;43.67;;;;;;;;;;4666333;28;20480;-73
2020/12/24 02:10:12;;;;;;;63.10;41.63;;;9.70;84.50;;;;;;4666374;28;20836;-74
2020/12/24 02:12:29;;;;;;;62.30;42.77;;;11.10;85.00;;;;;;4668384;28;20447;-74
2020/12/24 02:14:45;;;;;;;66.67;43.50;;;11.20;85.00;;;;;;4649335;28;20862;-75
2020/12/24 02:17:01;;;;;;;65.53;43.03;;;11.50;85.20;;;;;;4667691;28;20470;-74
2020/12/24 02:19:24;;;;;;;65.40;43.20;;;11.20;84.90;;;;;;4667220;28;20421;-74
2020/12/24 02:21:41;;;;;;;61.13;42.83;;;10.30;84.50;;;;;;4666553;28;20444;-75
2020/12/24 02:23:57;;;;;;;51.00;37.23;;;11.80;85.70;;;;;;4666548;28;20444;-74
2020/12/24 02:26:14;;;;;;;62.73;41.00;;;11.10;82.90;;;;;;4666660;28;20960;-74
2020/12/24 02:28:31;;;;;;;52.50;38.53;;;;;;;;;;4666866;28;20472;-74
2020/12/24 02:30:47;;;;;;;58.53;41.03;;;10.40;84.90;;;;;;4666761;28;20440;-75
2020/12/24 02:33:03;;;;;;;55.40;39.50;;;9.80;82.10;;;;;;4666948;28;20941;-75
2020/12/24 02:35:20;;;;;;;50.37;37.00;;;9.90;84.50;;;;;;4667274;28;20441;-75
2020/12/24 02:37:37;;;;;;;54.53;39.73;;;10.60;84.60;;;;;;4666644;28;20514;-76
2020/12/24 02:39:54;;;;;;;50.93;38.63;;;;;;;;;;4667391;28;20441;-76
2020/12/24 02:42:10;;;;;;;52.07;39.27;;;9.30;82.00;;;;;;4666759;28;20973;-74
2020/12/24 02:44:26;;;;;;;52.63;40.00;;;10.30;84.80;;;;;;4666217;28;20980;-76
2020/12/24 02:46:42;;;;;;;53.60;39.57;;;9.10;81.70;;;;;;4667171;28;20433;-76
2020/12/24 02:48:59;;;;;;;55.07;40.23;;;;;;;;;;4648425;28;20477;-75
2020/12/24 02:51:15;;;;;;;55.87;41.17;;;9.40;81.70;;;;;;4667272;28;20502;-74
2020/12/24 02:53:32;;;;;;;60.87;40.80;;;9.70;84.30;;;;;;4648983;28;20468;-74
2020/12/24 02:55:48;;;;;;;63.67;44.57;;;9.10;83.60;;;;;;4667234;28;20454;-74
2020/12/24 02:58:05;;;;;;;59.83;41.47;;;11.50;85.00;;;;;;4666593;28;20562;-74
2020/12/24 03:00:21;;;;;;;58.63;40.77;;;10.50;84.40;;;;;;4665694;28;20554;-74
2020/12/24 03:02:38;;;;;;;55.03;38.43;;;11.10;84.40;;;;;;4666243;28;20449;-74
2020/12/24 03:04:54;;;;;;;58.47;40.97;;;9.60;81.30;;;;;;4667261;28;20934;-75
2020/12/24 03:07:10;;;;;;;54.13;39.27;;;11.30;84.60;;;;;;4664698;28;20522;-74
2020/12/24 03:09:27;;;;;;;61.60;41.10;;;11.20;84.60;;;;;;4666052;28;20476;-76
2020/12/24 03:11:50;;;;;;;63.97;42.43;;;10.70;82.20;;;;;;4664811;28;20444;-75
2020/12/24 03:14:06;;;;;;;61.27;41.70;;;10.40;83.90;;;;;;4666236;28;20486;-75
2020/12/24 03:16:23;;;;;;;69.13;45.60;;;11.40;82.30;;;;;;4666364;28;20440;-75
2020/12/24 03:18:40;;;;;;;68.23;44.37;;;11.00;82.30;;;;;;4667357;28;20444;-75
2020/12/24 03:20:56;;;;;;;60.37;41.30;;;11.30;84.80;;;;;;4666291;28;20442;-74
2020/12/24 03:23:13;;;;;;;65.37;44.93;;;9.40;84.00;;;;;;4667088;28;20484;-74
2020/12/24 03:25:31;;;;;;;63.13;42.47;;;11.00;82.80;;;;;;4665176;28;20436;-75
2020/12/24 03:27:47;;;;;;;69.60;44.10;;;;;;;;;;4666712;28;20842;-75
2020/12/24 03:30:05;;;;;;;64.07;44.17;;;10.90;82.60;;;;;;4666754;28;20448;-75
2020/12/24 03:32:22;;;;;;;66.93;44.73;;;9.70;84.40;;;;;;4647954;28;20446;-75
2020/12/24 03:34:39;;;;;;;66.87;44.03;;;11.70;86.00;;;;;;4667101;28;20432;-76
2020/12/24 03:36:57;;;;;;;66.83;43.27;;;;;;;;;;4664986;28;20451;-74
2020/12/24 03:39:13;;;;;;;61.10;41.00;;;10.40;84.90;;;;;;4648969;28;20433;-74
2020/12/24 03:41:31;;;;;;;64.90;43.43;;;;;;;;;;4666157;28;20432;-75
2020/12/24 03:43:47;;;;;;;60.37;42.37;;;11.00;83.20;;;;;;4665651;28;20514;-76
2020/12/24 03:46:03;;;;;;;67.73;44.37;;;9.70;82.50;;;;;;4666105;28;20870;-75
2020/12/24 03:48:20;;;;;;;74.63;46.07;;;10.20;84.90;;;;;;4668654;28;20479;-75
2020/12/24 03:50:39;;;;;;;66.80;43.67;;;;;;;;;;4669882;28;20436;-76
2020/12/24 03:52:55;;;;;;;65.57;45.67;;;;;;;;;;4669141;28;20845;-76
2020/12/24 03:55:12;;;;;;;65.83;44.97;;;10.40;83.20;;;;;;4669653;28;20919;-77
2020/12/24 03:57:30;;;;;;;62.70;43.20;;;10.50;85.30;;;;;;4670729;28;20452;-74
2020/12/24 03:59:47;;;;;;;67.73;44.70;;;11.00;83.30;;;;;;4669338;28;20432;-76
2020/12/24 04:02:03;;;;;;;61.30;41.60;;;10.80;85.80;;;;;;4670135;28;20953;-75
2020/12/24 04:04:19;;;;;;;61.97;42.47;;;11.40;86.20;;;;;;4669315;28;20529;-73
2020/12/24 04:06:35;;;;;;;53.63;39.37;;;9.80;82.80;;;;;;4668591;28;20461;-74
2020/12/24 04:08:52;;;;;;;55.63;39.47;;;11.20;83.70;;;;;;4651315;28;20492;-75
2020/12/24 04:11:08;;;;;;;51.83;36.57;;;9.40;82.50;;;;;;4668732;28;20441;-74
2020/12/24 04:13:25;;;;;;;47.80;36.03;;;10.50;83.10;;;;;;4651395;28;20467;-74
2020/12/24 04:15:42;;;;;;;53.83;40.27;;;;;;;;;;4668600;28;20795;-74
2020/12/24 04:17:58;;;;;;;56.23;38.93;;;11.60;83.80;;;;;;4669780;28;20443;-74
2020/12/24 04:20:15;;;;;;;57.20;40.03;;;10.00;84.00;;;;;;4667899;28;20444;-74
2020/12/24 04:22:31;;;;;;;52.70;38.33;;;8.70;81.70;;;;;;4669880;28;20943;-76
2020/12/24 04:24:48;;;;;;;52.47;36.67;;;9.90;84.60;;;;;;4669144;28;20425;-76
2020/12/24 04:27:04;;;;;;;49.27;36.50;;;11.00;82.90;;;;;;4668304;28;20451;-75
2020/12/24 04:29:21;;;;;;;52.77;37.93;;;;;;;;;;4650785;28;20481;-74
2020/12/24 04:31:42;;;;;;;53.27;37.97;;;9.30;82.00;;;;;;4669715;28;20820;-74
2020/12/24 04:33:59;;;;;;;58.27;40.37;;;10.40;85.00;;;;;;4668825;28;20432;-76
2020/12/24 04:36:16;;;;;;;55.10;39.33;;;8.60;84.30;;;;;;4668522;28;20958;-76
2020/12/24 04:38:33;;;;;;;60.93;42.43;;;9.40;84.80;;;;;;4668720;28;20464;-77
2020/12/24 04:40:50;;;;;;;51.23;37.33;;;9.40;84.50;;;;;;4669809;28;20875;-76
2020/12/24 04:43:06;;;;;;;55.30;38.27;;;10.10;84.70;;;;;;4668498;28;20839;-76
2020/12/24 04:45:25;;;;;;;59.67;41.33;;;9.50;82.40;;;;;;4669783;28;20467;-75
2020/12/24 04:47:42;;;;;;;59.83;39.83;;;11.00;83.20;;;;;;4668425;28;20444;-75
2020/12/24 04:50:00;;;;;;;52.23;37.03;;;;;;;;;;4669675;28;20440;-76
2020/12/24 04:52:16;;;;;;;51.33;37.07;;;9.10;82.40;;;;;;4668741;28;20802;-76
2020/12/24 04:54:33;;;;;;;48.30;35.03;;;9.40;85.50;;;;;;4667827;28;20440;-76
2020/12/24 04:56:50;;;;;;;48.60;36.50;;;9.90;83.00;;;;;;4669187;28;20439;-75
2020/12/24 04:59:08;;;;;;;53.80;38.83;;;9.60;85.70;;;;;;4668551;28;20863;-75
2020/12/24 05:01:24;;;;;;;55.47;38.00;;;9.70;83.00;;;;;;4668971;28;20436;-75
2020/12/24 05:03:41;;;;;;;52.67;39.10;;;10.70;86.40;;;;;;4668396;28;20813;-76
2020/12/24 05:05:58;;;;;;;54.90;38.20;;;;;;;;;;4668938;28;20530;-76
2020/12/24 05:08:15;;;;;;;53.13;37.73;;;10.90;86.40;;;;;;4666861;28;20480;-76
2020/12/24 05:10:35;;;;;;;55.67;37.23;;;10.30;85.80;;;;;;4650953;28;20943;-76
2020/12/24 05:12:52;;;;;;;43.20;32.87;;;10.10;86.00;;;;;;4667106;28;20424;-75
2020/12/24 05:15:08;;;;;;;49.63;35.93;;;10.50;83.50;;;;;;4669424;28;20443;-76
2020/12/24 05:17:26;;;;;;;49.67;37.20;;;9.30;85.40;;;;;;4667887;28;20527;-75
2020/12/24 05:19:48;;;;;;;44.10;33.50;;;8.80;82.60;;;;;;4669317;28;20897;-75
2020/12/24 05:22:16;;;;;;;45.03;33.77;;;11.00;84.10;;;;;;4666642;28;20429;-75
2020/12/24 05:24:33;;;;;;;50.80;36.40;;;10.60;86.30;;;;;;4668952;28;20539;-75
2020/12/24 05:26:52;;;;;;;51.40;38.33;;;9.70;83.00;;;;;;4666505;28;20934;-75
2020/12/24 05:29:12;;;;;;;57.10;41.10;;;9.60;82.80;;;;;;4667169;28;20541;-76
2020/12/24 05:31:32;;;;;;;57.10;39.30;;;11.10;86.90;;;;;;4668408;28;20421;-76
2020/12/24 05:33:52;;;;;;;58.90;39.70;;;9.00;83.00;;;;;;4666781;28;20424;-76
2020/12/24 05:36:19;;;;;;;60.40;40.80;;;10.60;86.70;;;;;;4667620;28;20437;-76
2020/12/24 05:38:35;;;;;;;62.30;41.97;;;;;;;;;;4667714;28;21001;-76
2020/12/24 05:40:51;;;;;;;54.53;38.73;;;;;;;;;;4668568;28;20447;-76
2020/12/24 05:43:08;;;;;;;55.10;38.33;;;10.50;86.80;;;;;;4667764;28;20432;-76
2020/12/24 05:45:26;;;;;;;54.37;39.20;;;10.40;84.10;;;;;;4668512;28;20441;-75
2020/12/24 05:47:43;;;;;;;52.77;37.63;;;;;;;;;;4667552;28;20425;-75
2020/12/24 05:50:00;;;;;;;53.43;39.07;;;11.00;84.10;;;;;;4667460;28;20815;-75
2020/12/24 05:52:17;;;;;;;48.90;35.63;;;;;;;;;;4665742;28;20432;-75
2020/12/24 05:54:36;;;;;;;58.73;37.70;;;9.20;83.00;;;;;;4668899;28;20978;-76
2020/12/24 05:56:54;;;;;;;53.00;37.43;;;9.90;85.80;;;;;;4667494;28;20436;-76
2020/12/24 05:59:15;;;;;;;50.53;36.50;;;11.50;84.10;;;;;;4667052;28;20448;-76
2020/12/24 06:01:39;;;;;;;52.77;37.80;;;10.50;83.40;;;;;;4667263;28;20951;-76
2020/12/24 06:04:03;;;;;;;56.43;37.67;;;10.10;82.60;;;;;;4667993;28;21194;-76
2020/12/24 06:06:46;;;;;;;52.93;36.73;;;9.40;84.90;;;;;;4665783;28;20543;-75
2020/12/24 06:09:13;;;;;;;46.07;34.60;;;11.00;83.80;;;;;;4667273;28;20835;-76
2020/12/24 06:11:37;;;;;;;42.00;32.13;;;11.00;85.80;;;;;;4667474;28;20413;-76
2020/12/24 06:13:58;;;;;;;37.97;29.47;;;10.50;85.60;;;;;;4665816;28;20436;-76
2020/12/24 06:16:15;;;;;;;38.00;31.13;;;11.10;83.60;;;;;;4668104;28;20486;-74
2020/12/24 06:18:34;;;;;;;41.27;31.90;;;11.70;83.80;;;;;;4665630;28;20805;-75
2020/12/24 06:20:58;;;;;;;49.13;34.07;;;9.70;82.50;;;;;;4668063;28;20425;-75
2020/12/24 06:23:18;;;;;;;46.00;34.47;;;9.70;82.20;;;;;;4649522;28;20454;-75
2020/12/24 06:25:34;;;;;;;52.30;36.60;;;;;;;;;;4667511;28;20463;-73
2020/12/24 06:27:54;;;;;;;48.37;35.53;;;9.70;85.20;;;;;;4667240;28;20938;-76
2020/12/24 06:30:15;;;;;;;49.10;35.63;;;;;;;;;;4665833;28;20464;-75
2020/12/24 06:32:36;;;;;;;50.87;36.43;;;10.80;86.30;;;;;;4666200;28;20429;-75
2020/12/24 06:34:52;;;;;;;51.13;38.37;;;11.40;86.80;;;;;;4667042;28;20477;-75
2020/12/24 06:37:14;;;;;;;51.37;37.00;;;10.90;83.70;;;;;;4666197;28;20444;-75
2020/12/24 06:39:45;;;;;;;51.63;38.60;;;8.60;82.70;;;;;;4666895;28;20479;-76
2020/12/24 06:42:00;;;;;;;53.47;39.20;;;10.90;84.10;;;;;;4667454;28;20428;-75
2020/12/24 06:44:17;;;;;;;49.50;35.77;;;;;;;;;;4666734;28;20448;-75
2020/12/24 06:46:57;;;;;;;50.07;36.83;;;8.40;82.80;;;;;;4666745;28;20433;-75
2020/12/24 06:49:14;;;;;;;40.77;30.90;;;;;;;;;;4666748;28;20472;-74
2020/12/24 06:51:49;;;;;;;38.30;29.77;;;8.80;83.10;;;;;;4665676;28;20843;-75
2020/12/24 06:54:22;;;;;;;49.23;34.07;;;10.20;83.80;;;;;;4667152;28;20446;-75
2020/12/24 06:56:40;;;;;;;44.70;33.03;;;9.50;86.00;;;;;;4666637;28;20858;-75
2020/12/24 06:58:59;;;;;;;49.10;33.90;;;11.40;87.10;;;;;;4666019;28;20460;-74
2020/12/24 07:01:16;;;;;;;41.73;32.43;;;11.10;84.20;;;;;;4666807;28;20486;-75
2020/12/24 07:03:36;;;;;;;46.27;33.40;;;8.90;82.90;;;;;;4665967;28;20494;-74
2020/12/24 07:05:53;;;;;;;46.30;33.47;;;9.60;84.40;;;;;;4665051;28;20555;-75
2020/12/24 07:08:09;;;;;;;46.77;33.53;;;10.70;83.80;;;;;;4667395;28;20456;-75
2020/12/24 07:10:45;;;;;;;44.77;33.27;;;9.80;83.00;;;;;;4647925;28;20461;-75
2020/12/24 07:13:02;;;;;;;45.67;34.43;;;10.70;86.50;;;;;;4667381;28;20661;-75
2020/12/24 07:15:24;;;;;;;49.67;35.63;;;10.40;86.40;;;;;;4665159;28;20865;-76
2020/12/24 07:17:44;;;;;;;43.93;33.93;;;;;;;;;;4665402;28;20463;-77
2020/12/24 07:20:02;;;;;;;44.70;34.23;;;9.10;82.80;;;;;;4665713;28;20420;-75
2020/12/24 07:22:19;;;;;;;42.87;32.73;;;10.60;83.80;;;;;;4668332;28;20444;-75
2020/12/24 07:24:37;;;;;;;48.40;34.63;;;8.80;85.60;;;;;;4669482;28;20448;-75
2020/12/24 07:26:56;;;;;;;49.53;35.33;;;10.80;86.60;;;;;;4670468;28;20424;-76
2020/12/24 07:29:14;;;;;;;46.33;34.10;;;;;;;;;;4670929;28;20468;-75
2020/12/24 07:31:32;;;;;;;48.33;35.13;;;10.00;85.70;;;;;;4652267;28;20476;-76
2020/12/24 07:33:49;;;;;;;43.47;33.20;;;;;;;;;;4670801;28;20501;-76
2020/12/24 07:36:07;;;;;;;45.73;32.63;;;9.30;82.90;;;;;;4668406;28;20431;-75
2020/12/24 07:38:25;;;;;;;41.83;33.07;;;10.20;83.10;;;;;;4636347;28;20473;-75
2020/12/24 07:40:41;;;;;;;41.20;30.53;;;9.50;82.50;;;;;;4667605;28;20432;-75
2020/12/24 07:43:11;;;;;;;35.97;29.30;;;11.30;83.60;;;;;;4652697;28;20441;-76
2020/12/24 07:45:28;;;;;;;39.57;30.73;;;9.50;84.90;;;;;;4669918;28;20802;-75
2020/12/24 07:47:47;;;;;;;42.17;30.80;;;9.30;84.80;;;;;;4669576;28;20443;-76
2020/12/24 07:50:03;;;;;;;46.90;34.87;;;10.50;85.40;;;;;;4668570;28;20978;-75
2020/12/24 07:52:20;;;;;;;50.93;36.33;;;;;;;;;;4669714;28;20469;-75
2020/12/24 07:54:37;;;;;;;50.50;36.60;;;;;;;;;;4668811;28;20424;-74
2020/12/24 07:56:54;;;;;;;55.03;37.73;;;9.40;82.50;;;;;;4668209;28;20566;-75
2020/12/24 07:59:13;;;;;;;52.57;36.97;;;;;;;;;;4668426;28;20424;-75
2020/12/24 08:01:30;;;;;;;48.43;35.40;;;9.90;85.80;;;;;;4667834;28;20786;-76
2020/12/24 08:03:56;;;;;;;50.97;36.07;;;11.10;86.60;;;;;;4668705;28;20444;-74
2020/12/24 08:06:13;;;;;;;47.77;35.33;;;11.20;86.50;;;;;;4669358;28;20825;-76
2020/12/24 08:08:35;;;;;;;42.13;33.23;;;9.70;83.50;;;;;;4670128;28;20456;-75
2020/12/24 08:10:52;;;;;;;40.90;32.73;;;;;;;;;;4668019;28;20432;-75
2020/12/24 08:13:10;;;;;;;38.63;30.60;;;11.20;86.90;;;;;;4670213;28;20922;-74
2020/12/24 08:15:28;;;;;;;38.00;30.93;;;8.50;85.10;;;;;;4669076;28;20799;-75
2020/12/24 08:17:53;;;;;;;37.10;29.70;;;9.10;85.60;;;;;;4668932;28;20463;-74
2020/12/24 08:20:12;;;;;;;39.60;30.27;;;10.90;86.40;;;;;;4667755;28;20425;-75
2020/12/24 08:22:43;;;;;;;36.03;29.70;;;9.90;85.90;;;;;;4669949;28;20512;-75
2020/12/24 08:25:00;;;;;;;38.60;29.93;;;9.40;85.50;;;;;;4668325;28;20456;-74
2020/12/24 08:27:18;;;;;;;34.30;27.70;;;9.10;82.90;;;;;;4650880;28;20539;-74
2020/12/24 08:29:36;;;;;;;38.20;29.47;;;10.20;86.00;;;;;;4669548;28;20561;-75
2020/12/24 08:31:55;;;;;;;36.70;29.30;;;;;;;;;;4668882;28;20428;-74
2020/12/24 08:34:15;;;;;;;36.17;28.93;;;;;;;;;;4668897;28;20448;-75
2020/12/24 08:36:31;;;;;;;40.73;30.23;;;10.70;85.60;;;;;;4668666;28;20790;-76
2020/12/24 08:38:47;;;;;;;37.80;28.37;;;;;;;;;;4668008;28;20529;-76
2020/12/24 08:41:04;;;;;;;37.47;28.43;;;11.50;85.70;;;;;;4668675;28;20977;-75
2020/12/24 08:43:20;;;;;;;45.33;31.10;;;;;;;;;;4668266;28;20806;-75
2020/12/24 08:45:44;;;;;;;43.40;30.27;;;9.50;81.70;;;;;;4667223;28;20448;-76
2020/12/24 08:48:01;;;;;;;39.57;30.57;;;8.50;83.80;;;;;;4669721;28;20860;-75
2020/12/24 08:50:29;;;;;;;45.03;33.60;;;;;;;;;;4668496;28;20892;-75
2020/12/24 08:52:46;;;;;;;38.83;31.43;;;10.50;84.60;;;;;;4669167;28;20649;-74
2020/12/24 08:55:05;;;;;;;41.90;29.63;;;11.60;84.70;;;;;;4681527;28;20443;-74
2020/12/24 08:57:23;;;;;;;39.17;29.50;;;;;;;;;;4687864;28;20427;-74
2020/12/24 08:59:39;;;;;;;35.00;27.83;;;11.40;85.30;;;;;;4687660;28;20574;-74
2020/12/24 09:01:56;;;;;;;36.80;29.67;;;10.30;84.70;;;;;;4684321;28;20442;-73
2020/12/24 09:04:13;;;;;;;40.30;29.87;;;;;;;;;;4686507;28;21101;-76
2020/12/24 09:06:35;;;;;;;39.80;31.23;;;;;;;;;;4685906;28;21209;-76
2020/12/24 09:08:52;;;;;;;41.50;31.80;;;;;;;;;;4684046;28;20927;-74
2020/12/24 09:11:25;;;;;;;38.30;30.30;;;8.90;82.00;;;;;;4685424;28;20442;-75
2020/12/24 09:13:45;;;;;;;41.47;32.47;;;9.40;82.20;;;;;;4686492;28;20481;-76
2020/12/24 09:16:11;;;;;;;39.33;30.57;;;10.40;82.70;;;;;;4684380;28;21352;-75
2020/12/24 09:18:27;;;;;;;40.80;30.20;;;10.70;86.00;;;;;;4687199;28;20424;-76
2020/12/24 09:20:43;;;;;;;35.97;28.07;;;;;;;;;;4684833;28;20428;-77
2020/12/24 09:23:01;;;;;;;39.73;31.93;;;9.10;82.30;;;;;;4687460;28;20439;-77
2020/12/24 09:25:29;;;;;;;38.90;29.80;;;;;;;;;;4685638;28;20800;-76
2020/12/24 09:27:45;;;;;;;42.07;32.73;;;;;;;;;;4685605;28;20442;-76
2020/12/24 09:30:04;;;;;;;42.97;31.57;;;10.90;83.40;;;;;;4687229;28;20484;-75
2020/12/24 09:32:20;;;;;;;41.37;32.53;;;10.30;85.80;;;;;;4685637;28;20432;-76
2020/12/24 09:34:36;;;;;;;47.40;33.07;;;;;;;;;;4685974;28;20447;-77
2020/12/24 09:36:53;;;;;;;39.70;32.20;;;9.40;85.00;;;;;;4686353;28;20937;-76
2020/12/24 09:39:10;;;;;;;44.97;31.30;;;10.80;86.20;;;;;;4687047;28;20816;-75
2020/12/24 09:41:26;;;;;;;42.00;31.07;;;11.10;85.90;;;;;;4686308;28;20439;-77
2020/12/24 09:43:42;;;;;;;45.37;32.97;;;11.00;85.80;;;;;;4686963;28;20450;-75
2020/12/24 09:45:58;;;;;;;41.93;31.20;;;10.70;85.40;;;;;;4683806;28;20436;-75
2020/12/24 09:48:15;;;;;;;42.80;32.80;;;9.60;84.70;;;;;;4686935;28;20444;-76
2020/12/24 09:50:34;;;;;;;40.80;32.73;;;11.20;85.90;;;;;;4685978;28;20973;-76
2020/12/24 09:52:50;;;;;;;40.03;31.13;;;;;;;;;;4687092;28;20430;-76
2020/12/24 09:55:08;;;;;;;40.43;31.37;;;;;;;;;;4686020;28;20463;-77
2020/12/24 09:57:25;;;;;;;40.33;32.07;;;;;;;;;;4686976;28;20439;-75
2020/12/24 09:59:40;;;;;;;43.23;31.57;;;10.00;82.70;;;;;;4684354;28;20444;-76
2020/12/24 10:01:57;;;;;;;42.50;31.10;;;;;;;;;;4685641;28;20566;-76
2020/12/24 10:04:13;;;;;;;39.73;30.40;;;9.10;81.80;;;;;;4685738;27;20967;-75
2020/12/24 10:06:30;;;;;;;43.07;30.07;;;10.20;85.40;;;;;;4686618;28;20471;-77
2020/12/24 10:08:46;;;;;;;40.97;32.93;;;11.20;83.10;;;;;;4685886;28;20838;-76
2020/12/24 10:11:04;;;;;;;38.50;29.87;;;10.20;85.10;;;;;;4668634;28;20862;-77
2020/12/24 10:13:20;;;;;;;40.17;29.70;;;;;;;;;;4685826;28;20447;-75
2020/12/24 10:15:37;;;;;;;34.47;27.53;;;;;;;;;;4684820;28;20439;-75
2020/12/24 10:17:54;;;;;;;38.03;29.57;;;10.20;85.20;;;;;;4686054;28;20455;-76
2020/12/24 10:20:10;;;;;;;40.97;30.67;;;;;;;;;;4684736;28;20431;-76
2020/12/24 10:22:27;;;;;;;39.43;31.03;;;10.00;84.80;;;;;;4686427;28;20443;-76
2020/12/24 10:24:44;;;;;;;39.83;32.07;;;;;;;;;;4667256;28;20863;-77
2020/12/24 10:27:01;;;;;;;41.63;31.40;;;9.60;84.70;;;;;;4686404;28;20440;-77
2020/12/24 10:29:18;;;;;;;42.93;30.70;;;9.20;84.40;;;;;;4667712;28;20515;-77
2020/12/24 10:31:34;;;;;;;40.70;30.30;;;9.80;84.70;;;;;;4685850;28;20432;-75
2020/12/24 10:33:51;;;;;;;40.73;30.40;;;;;;;;;;4685664;28;20899;-76
2020/12/24 10:36:07;;;;;;;35.73;27.63;;;;;;;;;;4686171;28;20443;-76
2020/12/24 10:38:25;;;;;;;40.37;30.13;;;9.30;83.40;;;;;;4684840;28;20494;-76
2020/12/24 10:40:42;;;;;;;42.80;30.17;;;11.40;84.60;;;;;;4685339;28;20834;-75
2020/12/24 10:42:59;;;;;;;40.53;31.77;;;10.60;81.80;;;;;;4683804;28;20486;-75
2020/12/24 10:45:16;;;;;;;36.67;28.77;;;11.20;81.80;;;;;;4686275;28;20472;-74
2020/12/24 10:47:32;;;;;;;41.27;30.67;;;11.10;81.80;;;;;;4683909;28;21043;-77
2020/12/24 10:49:49;;;;;;;35.00;28.17;;;10.80;81.40;;;;;;4686226;28;20528;-77
2020/12/24 10:52:05;;;;;;;36.83;29.20;;;10.60;82.70;;;;;;4685091;28;20447;-78
2020/12/24 10:54:21;;;;;;;39.47;29.73;;;10.40;82.40;;;;;;4685972;28;20431;-77
2020/12/24 10:56:38;;;;;;;35.77;26.70;;;12.10;81.40;;;;;;4683777;28;20809;-78
2020/12/24 10:58:55;;;;;;;36.47;29.07;;;12.00;81.90;;;;;;4684211;28;20439;-78
2020/12/24 11:01:11;;;;;;;37.33;30.10;;;10.90;82.80;;;;;;4684236;28;20971;-79
2020/12/24 11:03:29;;;;;;;38.83;28.93;;;;;;;;;;4667477;28;20795;-80
2020/12/24 11:05:48;;;;;;;34.20;27.53;;;;;;;;;;4686389;28;20884;-81
2020/12/24 11:08:05;;;;;;;34.17;27.93;;;;;;;;;;4685830;28;20513;-81
2020/12/24 11:10:22;;;;;;;37.40;28.67;;;;;;;;;;4686444;28;20502;-81
2020/12/24 11:12:40;;;;;;;38.47;29.03;;;12.00;83.40;;;;;;4684357;28;20812;-81
2020/12/24 11:14:57;;;;;;;40.40;29.07;;;;;;;;;;4686390;28;20794;-76
2020/12/24 11:17:13;;;;;;;38.50;29.20;;;10.70;82.70;;;;;;4666775;28;20441;-74
2020/12/24 11:19:30;;;;;;;36.47;29.07;;;9.80;82.40;;;;;;4684743;28;20439;-75
2020/12/24 11:21:46;;;;;;;33.40;27.00;;;11.80;83.60;;;;;;4684560;28;20465;-76
2020/12/24 11:24:06;;;;;;;44.83;34.20;;;11.20;83.30;;;;;;4684705;28;20439;-75
2020/12/24 11:26:23;;;;;;;39.27;28.97;;;10.00;82.40;;;;;;4684684;28;20427;-75
2020/12/24 11:28:39;;;;;;;44.83;32.70;;;10.70;82.60;;;;;;4685714;28;20439;-75
2020/12/24 11:30:57;;;;;;;41.83;30.53;;;10.70;80.90;;;;;;4684593;28;20618;-75
2020/12/24 11:33:31;;;;;;;42.80;31.20;;;10.50;82.80;;;;;;4669959;28;20457;-75
2020/12/24 11:35:47;;;;;;;41.33;31.10;;;11.30;81.60;;;;;;4683837;28;20994;-76
2020/12/24 11:38:03;;;;;;;40.23;28.47;;;;;;;;;;4684900;28;20452;-76
2020/12/24 11:40:21;;;;;;;34.80;28.67;;;9.80;80.80;;;;;;4684082;28;20850;-76
2020/12/24 11:42:38;;;;;;;38.33;28.97;;;11.40;83.60;;;;;;4683108;28;20489;-77
2020/12/24 11:44:54;;;;;;;39.93;30.37;;;11.40;83.60;;;;;;4667376;28;20821;-76
2020/12/24 11:47:12;;;;;;;41.90;29.97;;;10.60;83.10;;;;;;4666740;28;20470;-76
2020/12/24 11:49:28;;;;;;;38.03;29.80;;;11.10;83.00;;;;;;4685353;28;20471;-80
2020/12/24 11:51:45;;;;;;;39.03;29.07;;;;;;;;;;4649958;28;20437;-79
2020/12/24 11:54:02;;;;;;;39.10;29.17;;;;;;;;;;4685596;28;20440;-78
2020/12/24 11:56:23;;;;;;;41.23;30.13;;;12.50;81.20;;;;;;4683108;28;20437;-78
2020/12/24 11:58:41;;;;;;;38.90;30.03;;;11.40;82.40;;;;;;4685544;28;20415;-78
2020/12/24 12:00:59;;;;;;;39.87;30.17;;;;;;;;;;4666612;28;20426;-79
2020/12/24 12:03:16;;;;;;;35.67;28.47;;;9.60;81.20;;;;;;4667115;28;20468;-77
2020/12/24 12:05:33;;;;;;;37.30;29.77;;;12.20;82.80;;;;;;4683063;28;20451;-77